Time;durP1;ratioP1;P1;durP2;ratioP2;P2;SDS_P1;SDS_P2;PMS_P1;PMS_P2;Temp;Humidity;BMP_temperature;BMP_pressure;BME280_temperature;BME280_humidity;BME280_pressure;Samples;Min_cycle;Max_cycle;Signal;HPM_P1;HPM_P2
2022/03/07 00:01:51;;;;;;;16.55;10.30;;;0.90;83.80;;;;;;5026692;28;20096;-72
2022/03/07 00:04:17;;;;;;;18.08;9.40;;;0.90;83.60;;;;;;5028245;28;20029;-72
2022/03/07 00:06:47;;;;;;;15.13;9.13;;;0.80;83.80;;;;;;5026124;28;20029;-72
2022/03/07 00:09:13;;;;;;;14.70;9.15;;;0.90;84.10;;;;;;5025594;28;20475;-72
2022/03/07 00:11:40;;;;;;;17.23;9.52;;;0.90;84.30;;;;;;5031400;28;20017;-71
2022/03/07 00:14:06;;;;;;;18.67;10.50;;;0.90;85.00;;;;;;5037878;28;20029;-72
2022/03/07 00:16:32;;;;;;;16.85;9.70;;;0.80;85.10;;;;;;5032090;28;20099;-72
2022/03/07 00:18:58;;;;;;;17.80;10.25;;;0.80;85.30;;;;;;5040364;28;20021;-72
2022/03/07 00:21:24;;;;;;;17.73;10.60;;;0.90;85.70;;;;;;5030626;28;20026;-72
2022/03/07 00:23:50;;;;;;;18.15;10.02;;;0.80;85.90;;;;;;5024622;28;20048;-72
2022/03/07 00:26:19;;;;;;;18.83;10.48;;;0.80;86.10;;;;;;5031934;28;20033;-72
2022/03/07 00:28:46;;;;;;;16.05;10.23;;;0.80;86.40;;;;;;5026270;28;20041;-72
2022/03/07 00:31:12;;;;;;;15.98;9.45;;;0.80;86.80;;;;;;5026157;28;20580;-72
2022/03/07 00:33:39;;;;;;;17.02;9.98;;;0.80;86.90;;;;;;5024556;28;20121;-72
2022/03/07 00:36:05;;;;;;;15.88;9.60;;;0.80;87.30;;;;;;5029123;28;20045;-72
2022/03/07 00:38:31;;;;;;;17.00;9.90;;;0.80;87.70;;;;;;5046648;28;20033;-71
2022/03/07 00:40:57;;;;;;;17.33;10.75;;;0.80;87.70;;;;;;5030374;28;20116;-72
2022/03/07 00:43:23;;;;;;;23.42;11.05;;;0.80;88.00;;;;;;5031722;28;20025;-72
2022/03/07 00:45:50;;;;;;;17.08;10.25;;;0.80;88.30;;;;;;5028185;28;20032;-72
2022/03/07 00:48:16;;;;;;;19.17;10.90;;;0.80;88.60;;;;;;5043590;28;20025;-72
2022/03/07 00:50:50;;;;;;;16.75;10.40;;;0.80;89.20;;;;;;5029015;28;20025;-71
2022/03/07 00:53:19;;;;;;;15.88;10.05;;;0.80;89.30;;;;;;5028838;28;20083;-72
2022/03/07 00:55:45;;;;;;;17.33;10.65;;;0.80;89.70;;;;;;5028175;28;20030;-72
2022/03/07 00:58:10;;;;;;;17.88;9.80;;;0.80;89.80;;;;;;5028876;28;20347;-72
2022/03/07 01:00:37;;;;;;;17.75;10.82;;;0.70;90.00;;;;;;5028814;28;20057;-72
2022/03/07 01:03:04;;;;;;;20.77;11.23;;;0.70;90.10;;;;;;5026599;28;20021;-72
2022/03/07 01:05:30;;;;;;;19.42;11.00;;;0.70;90.40;;;;;;5027561;28;20117;-72
2022/03/07 01:07:56;;;;;;;19.55;11.10;;;0.70;90.30;;;;;;5028923;28;20034;-71
2022/03/07 01:10:22;;;;;;;19.77;9.82;;;0.60;90.60;;;;;;5028257;28;20091;-72
2022/03/07 01:12:49;;;;;;;20.92;10.82;;;0.60;90.70;;;;;;5026286;28;20063;-72
2022/03/07 01:15:15;;;;;;;16.13;10.25;;;0.60;91.00;;;;;;5028297;28;20040;-71
2022/03/07 01:17:41;;;;;;;14.52;9.40;;;0.60;91.00;;;;;;5026895;28;20026;-71
2022/03/07 01:20:09;;;;;;;14.15;8.88;;;0.60;91.10;;;;;;5025663;28;20033;-71
2022/03/07 01:22:34;;;;;;;16.33;10.27;;;0.60;91.20;;;;;;5025006;28;20084;-71
2022/03/07 01:25:01;;;;;;;16.55;9.70;;;0.50;91.40;;;;;;5026702;28;20413;-72
2022/03/07 01:27:27;;;;;;;15.40;9.20;;;0.50;91.70;;;;;;5028720;28;20021;-72
2022/03/07 01:29:52;;;;;;;17.55;9.80;;;0.50;91.70;;;;;;5028946;28;20112;-72
2022/03/07 01:32:18;;;;;;;19.55;11.23;;;0.40;91.80;;;;;;5029078;28;20060;-72
2022/03/07 01:34:44;;;;;;;17.88;9.60;;;0.40;91.90;;;;;;5025258;28;20486;-72
2022/03/07 01:37:09;;;;;;;17.02;8.75;;;0.40;92.00;;;;;;5024019;28;20037;-72
2022/03/07 01:39:35;;;;;;;14.73;8.73;;;0.40;92.00;;;;;;5023961;28;20083;-73
2022/03/07 01:42:01;;;;;;;16.35;9.23;;;0.40;92.20;;;;;;5030646;28;20025;-72
2022/03/07 01:44:28;;;;;;;16.52;9.18;;;0.40;92.30;;;;;;5025135;28;20029;-72
2022/03/07 01:46:55;;;;;;;16.88;9.05;;;0.40;92.40;;;;;;5028892;28;20490;-72
2022/03/07 01:49:21;;;;;;;16.10;9.90;;;0.40;92.50;;;;;;5028744;28;20063;-73
2022/03/07 01:51:48;;;;;;;15.02;8.73;;;0.30;92.60;;;;;;5024740;28;20033;-73
2022/03/07 01:54:15;;;;;;;17.00;9.25;;;0.30;92.70;;;;;;5044108;28;20063;-73
2022/03/07 01:56:42;;;;;;;16.35;8.70;;;0.30;92.40;;;;;;5025573;28;20033;-74
2022/03/07 01:59:15;;;;;;;18.52;9.13;;;0.30;92.40;;;;;;5024735;28;20083;-72
2022/03/07 02:01:41;;;;;;;13.27;8.25;;;0.30;92.40;;;;;;5027556;28;20356;-72
2022/03/07 02:04:07;;;;;;;16.33;9.30;;;0.30;92.40;;;;;;5025271;28;20045;-72
2022/03/07 02:06:33;;;;;;;14.75;8.07;;;0.20;92.60;;;;;;5027501;28;21545;-72
2022/03/07 02:08:59;;;;;;;13.45;8.52;;;0.30;92.70;;;;;;5031491;28;20132;-72
2022/03/07 02:11:25;;;;;;;12.95;7.95;;;0.20;92.90;;;;;;5026329;28;20060;-72
2022/03/07 02:13:52;;;;;;;10.75;7.43;;;0.20;92.80;;;;;;5020222;28;20027;-73
2022/03/07 02:16:19;;;;;;;15.07;8.52;;;0.20;92.70;;;;;;5021658;28;20040;-73
2022/03/07 02:18:45;;;;;;;15.02;8.10;;;0.10;92.60;;;;;;5028837;28;20041;-73
2022/03/07 02:21:16;;;;;;;16.10;7.80;;;0.10;92.60;;;;;;5026352;28;20030;-73
2022/03/07 02:23:43;;;;;;;13.25;7.22;;;0.10;92.60;;;;;;5024578;28;20032;-73
2022/03/07 02:26:17;;;;;;;12.60;7.38;;;0.10;92.70;;;;;;5028517;28;20021;-73
2022/03/07 02:28:45;;;;;;;13.25;7.63;;;0.00;92.60;;;;;;5026926;28;20035;-73
2022/03/07 02:31:15;;;;;;;12.05;7.47;;;0.10;92.90;;;;;;5024703;28;20036;-73
2022/03/07 02:33:41;;;;;;;13.63;7.07;;;0.00;92.90;;;;;;5023627;28;20383;-74
2022/03/07 02:36:07;;;;;;;12.93;7.03;;;0.00;92.90;;;;;;5029632;28;20048;-73
2022/03/07 02:38:33;;;;;;;18.45;7.75;;;0.00;92.80;;;;;;5031709;28;20490;-73
2022/03/07 02:40:58;;;;;;;11.48;7.00;;;0.00;93.00;;;;;;5038933;28;20049;-73
2022/03/07 02:43:24;;;;;;;11.70;7.22;;;0.00;93.20;;;;;;5024905;28;20034;-73
2022/03/07 02:45:51;;;;;;;11.60;6.95;;;0.00;93.30;;;;;;5029454;28;20025;-72
2022/03/07 02:48:18;;;;;;;11.65;7.15;;;0.00;93.10;;;;;;5031486;28;20478;-72
2022/03/07 02:50:47;;;;;;;10.80;7.13;;;-0.10;93.30;;;;;;5038548;28;20068;-73
2022/03/07 02:53:13;;;;;;;10.65;6.55;;;-0.10;93.20;;;;;;5024356;28;20498;-72
2022/03/07 02:55:39;;;;;;;11.80;7.25;;;-0.20;93.50;;;;;;5025498;28;20113;-73
2022/03/07 02:58:05;;;;;;;10.57;6.95;;;-0.10;93.80;;;;;;5032029;28;20199;-73
2022/03/07 03:00:31;;;;;;;12.13;7.50;;;-0.20;93.90;;;;;;5025052;28;20092;-73
2022/03/07 03:02:57;;;;;;;14.38;7.65;;;-0.20;93.90;;;;;;5022759;28;20090;-73
2022/03/07 03:05:24;;;;;;;10.20;6.60;;;-0.20;93.80;;;;;;5026851;28;20436;-73
2022/03/07 03:07:51;;;;;;;10.45;6.55;;;-0.20;94.00;;;;;;5039546;28;20022;-73
2022/03/07 03:10:17;;;;;;;11.23;7.20;;;-0.20;93.90;;;;;;5024755;28;20068;-73
2022/03/07 03:12:44;;;;;;;12.63;6.65;;;-0.20;94.00;;;;;;5025711;28;20076;-73
2022/03/07 03:15:10;;;;;;;11.48;6.78;;;-0.20;94.20;;;;;;5026798;28;20124;-73
2022/03/07 03:17:39;;;;;;;11.95;7.50;;;-0.30;93.90;;;;;;5030295;28;20104;-73
2022/03/07 03:20:05;;;;;;;12.68;7.25;;;-0.30;94.00;;;;;;5027591;28;20486;-73
2022/03/07 03:22:32;;;;;;;10.38;6.38;;;-0.40;94.20;;;;;;5027107;28;20030;-74
2022/03/07 03:24:57;;;;;;;12.00;6.57;;;-0.40;94.20;;;;;;5029529;28;20033;-74
2022/03/07 03:27:23;;;;;;;12.02;6.93;;;-0.50;94.40;;;;;;5031264;28;20623;-74
2022/03/07 03:29:49;;;;;;;10.85;6.43;;;-0.60;94.50;;;;;;5030654;28;20564;-74
2022/03/07 03:32:15;;;;;;;11.32;6.97;;;-0.60;94.50;;;;;;5032081;28;20029;-74
2022/03/07 03:34:41;;;;;;;14.10;7.30;;;-0.70;94.70;;;;;;5030607;28;20029;-74
2022/03/07 03:37:07;;;;;;;13.90;8.07;;;-0.70;94.80;;;;;;5041709;28;20426;-74
2022/03/07 03:39:33;;;;;;;12.65;7.00;;;-0.80;95.00;;;;;;5052014;28;20158;-75
2022/03/07 03:41:59;;;;;;;10.55;6.88;;;-0.80;95.10;;;;;;5051494;28;20116;-74
2022/03/07 03:44:25;;;;;;;14.27;7.60;;;-0.90;95.20;;;;;;5051465;28;20106;-74
2022/03/07 03:46:51;;;;;;;14.50;8.82;;;-0.90;95.40;;;;;;5051635;28;20021;-74
2022/03/07 03:49:16;;;;;;;15.90;7.65;;;-1.00;95.50;;;;;;5052153;28;20166;-74
2022/03/07 03:51:42;;;;;;;10.77;6.68;;;-1.10;95.80;;;;;;5051752;28;20140;-74
2022/03/07 03:54:08;;;;;;;12.77;7.55;;;-1.10;95.90;;;;;;5050330;28;20029;-74
2022/03/07 03:56:33;;;;;;;13.82;7.15;;;-1.10;96.00;;;;;;5035162;28;20045;-74
2022/03/07 03:58:59;;;;;;;14.10;7.10;;;-1.20;96.20;;;;;;5037707;28;20072;-74
2022/03/07 04:01:25;;;;;;;11.85;6.70;;;-1.20;96.30;;;;;;5028969;28;20026;-73
2022/03/07 04:03:50;;;;;;;12.02;7.25;;;-1.20;96.60;;;;;;5031897;28;20574;-73
2022/03/07 04:06:16;;;;;;;15.30;8.35;;;-1.30;96.80;;;;;;5041534;28;20029;-73
2022/03/07 04:08:42;;;;;;;12.70;6.90;;;-1.30;97.00;;;;;;5033584;28;20044;-73
2022/03/07 04:11:07;;;;;;;16.52;7.88;;;-1.40;97.10;;;;;;5025753;28;20133;-73
2022/03/07 04:13:33;;;;;;;15.27;8.02;;;-1.50;97.30;;;;;;5029043;28;20033;-73
2022/03/07 04:15:58;;;;;;;14.32;7.53;;;-1.50;97.50;;;;;;5027364;28;20394;-73
2022/03/07 04:18:24;;;;;;;14.32;7.40;;;-1.50;97.90;;;;;;5027024;28;20083;-73
2022/03/07 04:20:50;;;;;;;14.18;7.85;;;-1.50;98.60;;;;;;5035923;28;20022;-73
2022/03/07 04:23:20;;;;;;;11.32;7.45;;;-1.50;98.20;;;;;;5038156;28;20083;-73
2022/03/07 04:25:48;;;;;;;13.13;7.35;;;-1.60;98.50;;;;;;5031461;28;20030;-73
2022/03/07 04:28:14;;;;;;;12.80;7.45;;;-1.60;98.90;;;;;;5033158;28;20026;-73
2022/03/07 04:30:40;;;;;;;12.15;7.82;;;-1.60;99.00;;;;;;5025257;28;20112;-73
2022/03/07 04:33:05;;;;;;;14.80;7.65;;;-1.60;99.30;;;;;;5026931;28;20494;-73
2022/03/07 04:35:31;;;;;;;12.95;8.35;;;-1.60;99.70;;;;;;5035220;28;20026;-73
2022/03/07 04:37:57;;;;;;;12.48;7.90;;;-1.60;99.60;;;;;;5032470;28;20116;-72
2022/03/07 04:40:23;;;;;;;16.80;7.85;;;-1.60;99.60;;;;;;5028465;28;20471;-73
2022/03/07 04:42:48;;;;;;;15.43;7.55;;;-1.60;99.80;;;;;;5033557;28;20639;-73
2022/03/07 04:45:14;;;;;;;13.98;7.35;;;-1.70;99.90;;;;;;5036248;28;20052;-73
2022/03/07 04:47:41;;;;;;;14.93;8.32;;;-1.70;99.90;;;;;;5032381;28;20029;-73
2022/03/07 04:50:08;;;;;;;14.85;7.72;;;-1.70;99.90;;;;;;5036518;28;20541;-72
2022/03/07 04:52:34;;;;;;;16.23;8.18;;;-1.80;99.90;;;;;;5031235;28;20037;-73
2022/03/07 04:55:00;;;;;;;16.80;8.32;;;-1.80;99.90;;;;;;5042635;28;20029;-73
2022/03/07 04:57:25;;;;;;;13.02;7.20;;;-1.80;99.90;;;;;;5038821;28;20033;-73
2022/03/07 04:59:51;;;;;;;14.68;8.05;;;-1.80;99.90;;;;;;5031365;28;20025;-73
2022/03/07 05:02:17;;;;;;;13.50;7.88;;;-1.80;99.90;;;;;;5032721;28;20475;-73
2022/03/07 05:04:43;;;;;;;18.33;8.90;;;-1.90;99.90;;;;;;5031102;28;20028;-73
2022/03/07 05:07:09;;;;;;;12.85;7.95;;;-1.90;99.90;;;;;;5043186;28;20098;-73
2022/03/07 05:09:34;;;;;;;13.63;7.88;;;-1.90;99.90;;;;;;5033761;28;20528;-73
2022/03/07 05:12:00;;;;;;;16.02;8.95;;;-1.90;99.90;;;;;;5029933;28;20057;-73
2022/03/07 05:14:26;;;;;;;15.48;8.80;;;-1.90;99.90;;;;;;5049499;28;20489;-73
2022/03/07 05:16:52;;;;;;;18.42;9.40;;;-1.90;99.90;;;;;;5032546;28;20034;-74
2022/03/07 05:19:19;;;;;;;16.05;9.00;;;-1.80;99.90;;;;;;5034604;28;20094;-74
2022/03/07 05:21:45;;;;;;;17.80;8.88;;;-1.90;99.90;;;;;;5035416;28;20309;-74
2022/03/07 05:24:10;;;;;;;19.15;9.55;;;-1.90;99.90;;;;;;5030885;28;20097;-74
2022/03/07 05:26:37;;;;;;;15.98;9.07;;;-1.90;99.90;;;;;;5034947;28;20104;-74
2022/03/07 05:29:04;;;;;;;17.05;8.30;;;-1.90;99.90;;;;;;5035815;28;20096;-73
2022/03/07 05:31:30;;;;;;;16.50;8.65;;;-1.90;99.90;;;;;;5038315;28;20045;-72
2022/03/07 05:33:56;;;;;;;16.00;8.85;;;-2.00;99.90;;;;;;5032148;28;20453;-73
2022/03/07 05:36:21;;;;;;;14.77;8.73;;;-2.00;99.90;;;;;;5030741;28;20026;-73
2022/03/07 05:38:47;;;;;;;13.68;7.95;;;-2.00;99.90;;;;;;5027707;28;20386;-74
2022/03/07 05:41:14;;;;;;;17.30;8.95;;;-2.00;99.90;;;;;;5029622;28;20021;-73
2022/03/07 05:43:40;;;;;;;17.70;9.07;;;-2.00;99.90;;;;;;5034261;28;20402;-73
2022/03/07 05:46:06;;;;;;;17.27;8.23;;;-2.00;99.90;;;;;;5031843;28;20091;-73
2022/03/07 05:48:33;;;;;;;15.65;9.02;;;-2.00;99.90;;;;;;5043376;28;20459;-73
2022/03/07 05:50:59;;;;;;;15.02;8.30;;;-2.00;99.90;;;;;;5033750;28;22109;-73
2022/03/07 05:53:25;;;;;;;15.88;8.18;;;-2.10;99.90;;;;;;5028034;28;20041;-73
2022/03/07 05:55:51;;;;;;;15.98;8.40;;;-2.10;99.90;;;;;;5028157;28;20029;-72
2022/03/07 05:58:18;;;;;;;21.58;9.80;;;-2.10;99.90;;;;;;5026661;28;20482;-72
2022/03/07 06:00:44;;;;;;;17.88;9.55;;;-2.10;99.90;;;;;;5031824;28;20104;-72
2022/03/07 06:03:11;;;;;;;17.52;9.45;;;-2.10;99.90;;;;;;5031944;28;20474;-73
2022/03/07 06:05:36;;;;;;;16.20;9.35;;;-2.10;99.90;;;;;;5031972;28;20051;-74
2022/03/07 06:08:03;;;;;;;18.63;9.45;;;-2.10;99.90;;;;;;5032348;28;20478;-73
2022/03/07 06:10:28;;;;;;;19.58;9.45;;;-2.10;99.90;;;;;;5030936;28;20458;-73
2022/03/07 06:12:54;;;;;;;18.70;9.80;;;-2.10;99.90;;;;;;5033114;28;20025;-73
2022/03/07 06:15:20;;;;;;;19.85;10.35;;;-2.10;99.90;;;;;;5030638;28;20040;-72
2022/03/07 06:17:51;;;;;;;19.27;9.32;;;-2.10;99.90;;;;;;5034411;28;20120;-72
2022/03/07 06:20:18;;;;;;;22.20;10.73;;;-2.20;99.90;;;;;;5030439;28;20053;-73
2022/03/07 06:22:44;;;;;;;18.55;9.52;;;-2.10;99.90;;;;;;5031828;28;20017;-73
2022/03/07 06:25:10;;;;;;;20.73;9.82;;;-2.20;99.90;;;;;;5037664;28;20408;-73
2022/03/07 06:27:35;;;;;;;17.10;9.48;;;-2.20;99.90;;;;;;5031264;28;20021;-73
2022/03/07 06:30:01;;;;;;;20.27;9.85;;;-2.20;99.90;;;;;;5031441;28;20108;-72
2022/03/07 06:32:27;;;;;;;16.42;9.02;;;-2.10;99.90;;;;;;5029960;28;20121;-72
2022/03/07 06:34:53;;;;;;;21.52;9.15;;;-2.10;99.90;;;;;;5030649;28;20096;-72
2022/03/07 06:37:18;;;;;;;18.77;10.50;;;-2.10;99.90;;;;;;5028349;28;20029;-71
2022/03/07 06:39:44;;;;;;;21.92;9.73;;;-2.10;99.90;;;;;;5023526;28;20025;-72
2022/03/07 06:42:10;;;;;;;21.10;10.30;;;-2.10;99.90;;;;;;5028517;28;20025;-72
2022/03/07 06:44:39;;;;;;;20.77;9.55;;;-2.10;99.90;;;;;;5034423;28;20029;-72
2022/03/07 06:47:09;;;;;;;20.00;10.43;;;-2.00;99.90;;;;;;5032405;28;20386;-72
2022/03/07 06:49:35;;;;;;;25.42;10.85;;;-1.90;99.90;;;;;;5033176;28;20029;-72
2022/03/07 06:52:01;;;;;;;19.50;10.00;;;-1.90;99.90;;;;;;5027537;28;20036;-72
2022/03/07 06:54:26;;;;;;;17.90;10.18;;;-1.80;99.90;;;;;;5028369;28;20032;-71
2022/03/07 06:56:52;;;;;;;18.08;10.45;;;-1.80;99.90;;;;;;5023210;28;20045;-71
2022/03/07 06:59:18;;;;;;;18.67;10.25;;;-1.80;99.90;;;;;;5022628;28;20025;-72
2022/03/07 07:01:43;;;;;;;21.40;9.90;;;-1.70;99.90;;;;;;5024609;28;20096;-71
2022/03/07 07:04:09;;;;;;;21.30;10.13;;;-1.70;99.90;;;;;;5034525;28;20033;-71
2022/03/07 07:06:35;;;;;;;21.70;10.98;;;-1.70;99.90;;;;;;5023491;28;20034;-71
2022/03/07 07:09:01;;;;;;;17.17;10.07;;;-1.70;99.90;;;;;;5027344;28;20033;-72
2022/03/07 07:11:27;;;;;;;21.65;11.23;;;-1.60;99.90;;;;;;5030743;28;20082;-72
2022/03/07 07:13:52;;;;;;;21.60;11.30;;;-1.60;99.90;;;;;;5021114;28;20081;-71
2022/03/07 07:16:18;;;;;;;19.20;9.63;;;-1.50;99.90;;;;;;5030078;28;20104;-71
2022/03/07 07:18:44;;;;;;;17.38;10.07;;;-1.40;99.90;;;;;;5026116;28;20021;-72
2022/03/07 07:21:09;;;;;;;21.77;10.48;;;-1.30;99.90;;;;;;5029324;28;20079;-72
2022/03/07 07:23:37;;;;;;;20.00;10.15;;;-1.30;99.90;;;;;;5031364;28;20033;-72
2022/03/07 07:26:03;;;;;;;19.77;10.90;;;-1.20;99.90;;;;;;5034510;28;20018;-72
2022/03/07 07:28:29;;;;;;;19.17;10.48;;;-1.10;99.90;;;;;;5027508;28;20144;-72
2022/03/07 07:30:55;;;;;;;19.08;9.77;;;-1.00;99.90;;;;;;5033274;28;20112;-72
2022/03/07 07:33:20;;;;;;;21.25;12.00;;;-1.00;99.90;;;;;;5030768;28;20017;-72
2022/03/07 07:35:46;;;;;;;25.65;11.00;;;-0.90;99.90;;;;;;5037395;28;20022;-73
2022/03/07 07:38:13;;;;;;;20.02;10.25;;;-0.90;99.90;;;;;;5029067;28;20026;-73
2022/03/07 07:40:39;;;;;;;23.00;11.13;;;-0.90;99.90;;;;;;5029689;28;20025;-73
2022/03/07 07:43:04;;;;;;;24.13;11.27;;;-0.80;99.90;;;;;;5038058;28;20055;-72
2022/03/07 07:45:30;;;;;;;19.63;10.50;;;-0.80;99.90;;;;;;5030097;28;20044;-72
2022/03/07 07:47:58;;;;;;;20.98;10.77;;;-0.70;99.90;;;;;;5034827;28;20068;-72
2022/03/07 07:50:23;;;;;;;19.67;10.35;;;-0.70;99.90;;;;;;5030792;28;20029;-73
2022/03/07 07:52:49;;;;;;;20.00;11.23;;;-0.60;99.60;;;;;;5039103;28;20414;-72
2022/03/07 07:55:15;;;;;;;21.90;11.43;;;-0.50;99.60;;;;;;5030653;28;20061;-72
2022/03/07 07:57:41;;;;;;;21.70;11.05;;;-0.50;99.50;;;;;;5031938;28;20021;-72
2022/03/07 08:00:09;;;;;;;20.00;10.48;;;-0.40;99.70;;;;;;5029096;28;20068;-72
2022/03/07 08:02:35;;;;;;;20.23;10.80;;;-0.40;99.60;;;;;;5029427;28;20033;-72
2022/03/07 08:05:01;;;;;;;21.17;11.25;;;-0.40;99.00;;;;;;5028328;28;20029;-73
2022/03/07 08:07:27;;;;;;;20.25;10.45;;;-0.30;98.70;;;;;;5028502;28;20022;-72
2022/03/07 08:09:53;;;;;;;22.05;10.52;;;-0.30;98.80;;;;;;5031976;28;20025;-72
2022/03/07 08:12:18;;;;;;;28.65;11.23;;;-0.20;97.70;;;;;;5027571;28;20028;-72
2022/03/07 08:14:45;;;;;;;18.23;9.98;;;-0.20;97.50;;;;;;5046518;28;20033;-73
2022/03/07 08:17:11;;;;;;;21.55;10.98;;;-0.10;97.30;;;;;;5029265;28;20029;-73
2022/03/07 08:19:37;;;;;;;20.42;10.75;;;0.00;97.30;;;;;;5031563;28;20076;-72
2022/03/07 08:22:04;;;;;;;19.98;11.00;;;0.10;97.20;;;;;;5034919;28;20049;-72
2022/03/07 08:24:29;;;;;;;19.67;10.63;;;0.10;96.80;;;;;;5037501;28;20053;-71
2022/03/07 08:26:55;;;;;;;24.40;10.85;;;0.10;97.10;;;;;;5048692;28;20135;-73
2022/03/07 08:29:21;;;;;;;19.63;10.05;;;0.10;96.60;;;;;;5034159;28;20056;-72
2022/03/07 08:31:47;;;;;;;21.23;11.15;;;0.20;96.20;;;;;;5026168;28;20053;-73
2022/03/07 08:34:12;;;;;;;20.88;10.63;;;0.20;95.90;;;;;;5030444;28;20033;-73
2022/03/07 08:36:38;;;;;;;20.20;10.90;;;0.30;96.00;;;;;;5049605;28;20025;-73
2022/03/07 08:39:04;;;;;;;18.65;10.18;;;0.40;96.50;;;;;;5034333;28;20437;-73
2022/03/07 08:41:30;;;;;;;17.80;10.57;;;0.30;95.90;;;;;;5032593;28;20097;-72
2022/03/07 08:43:55;;;;;;;19.63;10.10;;;0.30;95.70;;;;;;5035487;28;20030;-72
2022/03/07 08:46:22;;;;;;;20.30;10.68;;;0.30;94.90;;;;;;5035393;28;20355;-72
2022/03/07 08:48:47;;;;;;;18.23;10.20;;;0.30;94.90;;;;;;5030333;28;20030;-73
2022/03/07 08:51:13;;;;;;;21.50;10.73;;;0.30;94.70;;;;;;5038233;28;20132;-72
2022/03/07 08:53:39;;;;;;;20.70;11.57;;;0.30;95.10;;;;;;5036549;28;20022;-71
2022/03/07 08:56:05;;;;;;;26.27;11.38;;;0.30;95.20;;;;;;5034712;28;20029;-71
2022/03/07 08:58:30;;;;;;;19.98;11.00;;;0.40;95.20;;;;;;5027092;28;20479;-72
2022/03/07 09:00:56;;;;;;;19.95;10.43;;;0.40;95.20;;;;;;5027353;28;20017;-72
2022/03/07 09:03:22;;;;;;;20.02;11.25;;;0.60;95.20;;;;;;5027570;28;20051;-72
2022/03/07 09:05:48;;;;;;;17.02;10.05;;;0.70;94.60;;;;;;5035546;28;20025;-72
2022/03/07 09:08:13;;;;;;;19.30;10.23;;;0.80;94.40;;;;;;5049855;28;20036;-72
2022/03/07 09:10:39;;;;;;;21.00;10.55;;;1.00;93.90;;;;;;5034975;28;20029;-70
2022/03/07 09:13:05;;;;;;;20.15;11.20;;;1.10;93.40;;;;;;5031422;28;20477;-72
2022/03/07 09:15:30;;;;;;;20.70;10.60;;;1.10;93.20;;;;;;5032003;28;20106;-73
2022/03/07 09:17:56;;;;;;;17.23;9.82;;;1.20;93.10;;;;;;5026911;28;20033;-71
2022/03/07 09:20:22;;;;;;;21.27;11.55;;;1.20;92.50;;;;;;5031923;28;20429;-73
2022/03/07 09:22:48;;;;;;;17.00;9.38;;;1.20;92.90;;;;;;5047766;28;20029;-74
2022/03/07 09:25:15;;;;;;;19.98;10.65;;;1.10;91.60;;;;;;5050339;28;20029;-74
2022/03/07 09:27:43;;;;;;;21.70;10.40;;;1.20;91.50;;;;;;5028106;28;20030;-74
2022/03/07 09:30:09;;;;;;;17.10;10.85;;;1.30;91.30;;;;;;5035631;28;20079;-75
2022/03/07 09:32:35;;;;;;;17.02;9.98;;;1.30;91.00;;;;;;5026824;28;20502;-75
2022/03/07 09:35:00;;;;;;;17.77;10.38;;;1.30;90.90;;;;;;5036655;28;20021;-75
2022/03/07 09:37:26;;;;;;;15.02;9.13;;;1.40;90.70;;;;;;5030294;28;20064;-74
2022/03/07 09:39:52;;;;;;;17.30;9.38;;;1.50;90.50;;;;;;5033067;28;20025;-72
2022/03/07 09:42:18;;;;;;;17.83;9.85;;;1.50;90.40;;;;;;5035537;28;20028;-73
2022/03/07 09:44:43;;;;;;;18.33;10.18;;;1.40;89.80;;;;;;5033182;28;20028;-72
2022/03/07 09:47:10;;;;;;;18.08;9.77;;;1.50;90.20;;;;;;5030759;28;20057;-75
2022/03/07 09:49:35;;;;;;;17.13;10.05;;;1.50;90.20;;;;;;5031584;28;20036;-76
2022/03/07 09:52:02;;;;;;;18.77;9.57;;;1.80;90.80;;;;;;5026741;28;20030;-74
2022/03/07 09:54:28;;;;;;;19.38;9.23;;;1.80;89.80;;;;;;5032801;28;20108;-76
2022/03/07 09:56:55;;;;;;;16.30;9.60;;;1.90;88.50;;;;;;5033596;28;20501;-75
2022/03/07 09:59:22;;;;;;;18.55;10.85;;;1.90;88.00;;;;;;5033890;28;20049;-76
2022/03/07 10:02:05;;;;;;;17.52;9.68;;;1.80;88.50;;;;;;5029697;28;20430;-75
2022/03/07 10:04:38;;;;;;;18.95;9.93;;;1.80;88.70;;;;;;5032895;28;20409;-76
2022/03/07 10:07:04;;;;;;;15.52;8.95;;;1.90;87.90;;;;;;5030717;28;20093;-76
2022/03/07 10:09:30;;;;;;;17.90;9.93;;;2.00;86.60;;;;;;5030713;28;20033;-75
2022/03/07 10:12:03;;;;;;;18.40;9.40;;;2.10;85.30;;;;;;5028470;28;20449;-75
2022/03/07 10:14:44;;;;;;;16.08;9.75;;;2.10;84.80;;;;;;5023920;28;20026;-74
2022/03/07 10:17:26;;;;;;;16.67;9.63;;;2.20;84.60;;;;;;5027331;28;20041;-74
2022/03/07 10:19:54;;;;;;;14.27;8.88;;;2.30;84.40;;;;;;5029778;28;20039;-75
2022/03/07 10:22:25;;;;;;;15.10;9.38;;;2.40;84.00;;;;;;5030800;28;20030;-75
2022/03/07 10:25:06;;;;;;;16.25;9.38;;;2.50;82.70;;;;;;5033461;28;20029;-73
2022/03/07 10:27:37;;;;;;;16.65;10.00;;;2.60;82.60;;;;;;5021339;28;20116;-74
2022/03/07 10:30:10;;;;;;;19.00;9.82;;;2.60;82.10;;;;;;5027707;28;20035;-74
2022/03/07 10:32:36;;;;;;;16.27;9.10;;;2.60;82.40;;;;;;5029150;28;20532;-74
2022/03/07 10:35:02;;;;;;;17.77;9.73;;;2.50;81.80;;;;;;5031767;28;20049;-75
2022/03/07 10:37:35;;;;;;;17.30;9.15;;;2.50;81.00;;;;;;5035323;28;20040;-75
2022/03/07 10:40:01;;;;;;;15.45;8.60;;;2.40;82.40;;;;;;5041431;28;20057;-74
2022/03/07 10:42:26;;;;;;;19.33;9.57;;;2.30;82.50;;;;;;5007108;28;20060;-74
2022/03/07 10:45:05;;;;;;;16.52;9.90;;;2.30;82.80;;;;;;5036506;28;20076;-75
2022/03/07 10:47:31;;;;;;;16.50;9.02;;;2.30;82.20;;;;;;5032112;28;20025;-75
2022/03/07 10:50:00;;;;;;;15.90;9.48;;;2.20;83.10;;;;;;5031936;28;20036;-74
2022/03/07 10:52:38;;;;;;;18.13;9.77;;;2.20;83.30;;;;;;5033559;28;20048;-75
2022/03/07 10:55:09;;;;;;;19.00;9.30;;;2.30;82.70;;;;;;5034661;28;20022;-75
2022/03/07 10:57:41;;;;;;;18.38;9.88;;;2.40;81.90;;;;;;5041536;28;20254;-76
2022/03/07 11:00:12;;;;;;;17.63;9.07;;;2.50;82.20;;;;;;5032409;28;20480;-76
2022/03/07 11:02:40;;;;;;;19.27;10.02;;;2.50;81.50;;;;;;5031123;28;20022;-75
2022/03/07 11:05:07;;;;;;;17.05;9.02;;;2.60;79.80;;;;;;5034880;28;20027;-74
2022/03/07 11:07:38;;;;;;;16.88;9.38;;;2.60;79.90;;;;;;5028848;28;20061;-74
2022/03/07 11:10:08;;;;;;;15.77;9.05;;;2.70;80.10;;;;;;5023605;28;20033;-75
2022/03/07 11:12:34;;;;;;;17.75;10.45;;;2.80;79.00;;;;;;5027001;28;20123;-75
2022/03/07 11:15:08;;;;;;;16.67;9.95;;;2.90;78.90;;;;;;5030081;28;20075;-75
2022/03/07 11:17:41;;;;;;;18.48;10.57;;;2.90;79.10;;;;;;5028653;28;20107;-74
2022/03/07 11:20:09;;;;;;;16.58;9.82;;;3.00;78.70;;;;;;5029354;28;20508;-74
2022/03/07 11:22:35;;;;;;;16.25;10.05;;;3.00;74.80;;;;;;5032447;28;20043;-75
2022/03/07 11:25:03;;;;;;;15.10;9.23;;;3.00;74.60;;;;;;5033675;28;20040;-76
2022/03/07 11:27:29;;;;;;;16.13;9.23;;;3.00;73.00;;;;;;5035148;28;20055;-75
2022/03/07 11:29:55;;;;;;;16.40;10.15;;;3.10;72.30;;;;;;5031493;28;20029;-74
2022/03/07 11:32:21;;;;;;;18.20;9.57;;;3.20;72.20;;;;;;5032301;28;20017;-75
2022/03/07 11:35:02;;;;;;;16.23;9.35;;;3.40;71.50;;;;;;5031213;28;20510;-73
2022/03/07 11:37:32;;;;;;;15.80;9.52;;;3.40;70.20;;;;;;5027865;28;20060;-73
2022/03/07 11:40:00;;;;;;;15.82;9.38;;;3.30;69.40;;;;;;5042539;28;20021;-73
2022/03/07 11:42:39;;;;;;;17.65;9.93;;;3.40;70.70;;;;;;5032283;28;20037;-75
2022/03/07 11:45:10;;;;;;;17.33;10.05;;;3.30;69.80;;;;;;5030665;28;20040;-75
2022/03/07 11:47:38;;;;;;;15.10;9.15;;;3.30;68.70;;;;;;5032153;28;20036;-74
2022/03/07 11:50:05;;;;;;;22.63;10.43;;;3.40;69.10;;;;;;5032169;28;20051;-75
2022/03/07 11:52:31;;;;;;;18.40;10.95;;;3.30;69.20;;;;;;5051587;28;20045;-75
2022/03/07 11:55:00;;;;;;;17.08;9.25;;;3.40;69.30;;;;;;5043988;28;20026;-75
2022/03/07 11:57:44;;;;;;;15.50;10.25;;;3.40;68.20;;;;;;5048684;28;20120;-72
2022/03/07 12:00:10;;;;;;;19.00;10.63;;;3.40;68.30;;;;;;5050192;28;20034;-74
2022/03/07 12:02:48;;;;;;;15.90;9.80;;;3.40;68.30;;;;;;5027731;28;20031;-73
2022/03/07 12:05:31;;;;;;;13.40;7.97;;;3.60;68.00;;;;;;5037454;28;20029;-74
2022/03/07 12:08:07;;;;;;;15.05;9.32;;;3.70;67.00;;;;;;5035147;28;20021;-75
2022/03/07 12:10:33;;;;;;;15.80;9.65;;;3.80;66.80;;;;;;5028338;28;20100;-74
2022/03/07 12:13:07;;;;;;;18.02;10.00;;;3.80;66.60;;;;;;5043067;28;20034;-76
2022/03/07 12:15:46;;;;;;;17.65;9.25;;;3.70;66.40;;;;;;5034778;28;20080;-75
2022/03/07 12:18:12;;;;;;;15.85;9.32;;;3.70;67.10;;;;;;5037360;28;20510;-74
2022/03/07 12:20:53;;;;;;;15.63;10.05;;;3.80;66.80;;;;;;5047245;28;20108;-75
2022/03/07 12:23:21;;;;;;;17.27;10.13;;;3.90;65.70;;;;;;5036665;28;20129;-74
2022/03/07 12:25:55;;;;;;;16.75;10.07;;;3.90;65.50;;;;;;5033814;28;20530;-75
2022/03/07 12:28:20;;;;;;;17.08;9.25;;;3.80;65.40;;;;;;5019616;28;20034;-75
2022/03/07 12:30:46;;;;;;;14.65;9.38;;;3.80;65.60;;;;;;5017936;28;20042;-75
2022/03/07 12:33:12;;;;;;;19.80;10.60;;;3.80;65.70;;;;;;5035344;28;20062;-75
2022/03/07 12:35:38;;;;;;;16.60;9.43;;;3.80;65.80;;;;;;5038314;28;20084;-78
2022/03/07 12:38:08;;;;;;;14.60;9.00;;;3.80;65.60;;;;;;5029348;28;20029;-78